sensor_id;sensor_type;location;lat;lon;timestamp;P1;durP1;ratioP1;P2;durP2;ratioP2
7239;SDS011;3661;53.288;10.458;2023-09-19T00:01:58;1871.30;;;999.90;;
7239;SDS011;3661;53.288;10.458;2023-09-19T00:04:30;1884.80;;;999.90;;
7239;SDS011;3661;53.288;10.458;2023-09-19T00:07:04;1884.18;;;999.90;;
7239;SDS011;3661;53.288;10.458;2023-09-19T00:09:37;1891.97;;;999.90;;
7239;SDS011;3661;53.288;10.458;2023-09-19T00:12:18;1875.47;;;999.90;;
7239;SDS011;3661;53.288;10.458;2023-09-19T00:14:51;1862.78;;;999.90;;
7239;SDS011;3661;53.288;10.458;2023-09-19T00:17:24;1871.03;;;999.90;;
7239;SDS011;3661;53.288;10.458;2023-09-19T00:20:00;1861.43;;;999.90;;
7239;SDS011;3661;53.288;10.458;2023-09-19T00:22:44;1883.55;;;999.90;;
7239;SDS011;3661;53.288;10.458;2023-09-19T00:25:18;1882.38;;;999.90;;
7239;SDS011;3661;53.288;10.458;2023-09-19T00:27:52;1860.82;;;999.90;;
7239;SDS011;3661;53.288;10.458;2023-09-19T00:30:28;1861.82;;;999.90;;
7239;SDS011;3661;53.288;10.458;2023-09-19T00:33:01;1874.55;;;999.90;;
7239;SDS011;3661;53.288;10.458;2023-09-19T00:35:36;1874.40;;;999.90;;
7239;SDS011;3661;53.288;10.458;2023-09-19T00:38:09;1880.53;;;999.90;;
7239;SDS011;3661;53.288;10.458;2023-09-19T00:40:43;1857.70;;;999.90;;
7239;SDS011;3661;53.288;10.458;2023-09-19T00:43:22;1863.22;;;999.90;;
7239;SDS011;3661;53.288;10.458;2023-09-19T00:45:55;1834.93;;;999.90;;
7239;SDS011;3661;53.288;10.458;2023-09-19T00:48:32;1855.60;;;999.90;;
7239;SDS011;3661;53.288;10.458;2023-09-19T00:51:14;1844.55;;;999.90;;
7239;SDS011;3661;53.288;10.458;2023-09-19T00:53:51;1857.47;;;999.90;;
7239;SDS011;3661;53.288;10.458;2023-09-19T00:56:24;1850.75;;;999.90;;
7239;SDS011;3661;53.288;10.458;2023-09-19T00:58:58;1850.63;;;999.90;;
7239;SDS011;3661;53.288;10.458;2023-09-19T01:01:30;1845.22;;;999.90;;
7239;SDS011;3661;53.288;10.458;2023-09-19T01:04:03;1860.90;;;999.90;;
7239;SDS011;3661;53.288;10.458;2023-09-19T01:06:37;1864.22;;;999.90;;
7239;SDS011;3661;53.288;10.458;2023-09-19T01:09:09;1841.95;;;999.90;;
7239;SDS011;3661;53.288;10.458;2023-09-19T01:11:43;1872.37;;;999.90;;
7239;SDS011;3661;53.288;10.458;2023-09-19T01:14:28;1856.57;;;999.90;;
7239;SDS011;3661;53.288;10.458;2023-09-19T01:17:05;1845.72;;;999.90;;
7239;SDS011;3661;53.288;10.458;2023-09-19T01:22:46;1842.90;;;999.90;;
7239;SDS011;3661;53.288;10.458;2023-09-19T01:25:42;1838.53;;;999.90;;
7239;SDS011;3661;53.288;10.458;2023-09-19T01:31:45;1840.20;;;999.90;;
7239;SDS011;3661;53.288;10.458;2023-09-19T01:34:19;1841.72;;;999.90;;
7239;SDS011;3661;53.288;10.458;2023-09-19T01:36:51;1843.40;;;999.90;;
7239;SDS011;3661;53.288;10.458;2023-09-19T01:39:25;1829.73;;;999.90;;
7239;SDS011;3661;53.288;10.458;2023-09-19T01:41:59;1840.38;;;999.90;;
7239;SDS011;3661;53.288;10.458;2023-09-19T01:44:39;1809.97;;;999.90;;
7239;SDS011;3661;53.288;10.458;2023-09-19T01:47:26;1827.30;;;999.90;;
7239;SDS011;3661;53.288;10.458;2023-09-19T01:50:07;1819.97;;;999.90;;
7239;SDS011;3661;53.288;10.458;2023-09-19T01:52:47;1837.43;;;999.90;;
7239;SDS011;3661;53.288;10.458;2023-09-19T01:55:26;1825.53;;;999.90;;
7239;SDS011;3661;53.288;10.458;2023-09-19T01:58:01;1836.72;;;999.90;;
7239;SDS011;3661;53.288;10.458;2023-09-19T02:00:40;1840.72;;;999.90;;
7239;SDS011;3661;53.288;10.458;2023-09-19T02:03:16;1831.78;;;999.90;;
7239;SDS011;3661;53.288;10.458;2023-09-19T02:05:49;1831.55;;;999.90;;
7239;SDS011;3661;53.288;10.458;2023-09-19T02:08:23;1834.07;;;999.90;;
7239;SDS011;3661;53.288;10.458;2023-09-19T02:10:57;1835.80;;;999.90;;
7239;SDS011;3661;53.288;10.458;2023-09-19T02:13:30;1824.00;;;999.90;;
7239;SDS011;3661;53.288;10.458;2023-09-19T02:16:02;1827.55;;;999.90;;
7239;SDS011;3661;53.288;10.458;2023-09-19T02:18:38;1821.85;;;999.90;;
7239;SDS011;3661;53.288;10.458;2023-09-19T02:21:13;1814.45;;;999.90;;
7239;SDS011;3661;53.288;10.458;2023-09-19T02:23:45;1821.55;;;999.90;;
7239;SDS011;3661;53.288;10.458;2023-09-19T02:26:18;1803.28;;;999.90;;
7239;SDS011;3661;53.288;10.458;2023-09-19T02:28:51;1797.68;;;999.90;;
7239;SDS011;3661;53.288;10.458;2023-09-19T02:31:23;1823.83;;;999.90;;
7239;SDS011;3661;53.288;10.458;2023-09-19T02:33:56;1807.68;;;999.90;;
7239;SDS011;3661;53.288;10.458;2023-09-19T02:36:30;1807.50;;;999.90;;
7239;SDS011;3661;53.288;10.458;2023-09-19T02:39:02;1804.97;;;999.90;;
7239;SDS011;3661;53.288;10.458;2023-09-19T02:41:41;1824.00;;;999.90;;
7239;SDS011;3661;53.288;10.458;2023-09-19T02:44:14;1815.32;;;999.90;;
7239;SDS011;3661;53.288;10.458;2023-09-19T02:46:46;1822.15;;;999.90;;
7239;SDS011;3661;53.288;10.458;2023-09-19T02:49:20;1825.28;;;999.90;;
7239;SDS011;3661;53.288;10.458;2023-09-19T02:51:52;1811.55;;;999.90;;
7239;SDS011;3661;53.288;10.458;2023-09-19T02:54:25;1830.72;;;999.90;;
7239;SDS011;3661;53.288;10.458;2023-09-19T02:56:58;1810.90;;;999.90;;
7239;SDS011;3661;53.288;10.458;2023-09-19T02:59:31;1815.30;;;999.90;;
7239;SDS011;3661;53.288;10.458;2023-09-19T03:02:04;1800.43;;;999.90;;
7239;SDS011;3661;53.288;10.458;2023-09-19T03:04:37;1809.47;;;999.90;;
7239;SDS011;3661;53.288;10.458;2023-09-19T03:07:11;1818.57;;;999.90;;
7239;SDS011;3661;53.288;10.458;2023-09-19T03:09:44;1810.57;;;999.90;;
7239;SDS011;3661;53.288;10.458;2023-09-19T03:12:16;1822.85;;;999.90;;
7239;SDS011;3661;53.288;10.458;2023-09-19T03:14:50;1796.90;;;999.90;;
7239;SDS011;3661;53.288;10.458;2023-09-19T03:17:23;1799.60;;;999.90;;
7239;SDS011;3661;53.288;10.458;2023-09-19T03:19:57;1805.53;;;999.90;;
7239;SDS011;3661;53.288;10.458;2023-09-19T03:22:30;1807.00;;;999.90;;
7239;SDS011;3661;53.288;10.458;2023-09-19T03:25:03;1809.50;;;999.90;;
7239;SDS011;3661;53.288;10.458;2023-09-19T03:27:38;1777.63;;;999.90;;
7239;SDS011;3661;53.288;10.458;2023-09-19T03:30:13;1790.53;;;999.90;;
7239;SDS011;3661;53.288;10.458;2023-09-19T03:32:47;1795.20;;;999.90;;
7239;SDS011;3661;53.288;10.458;2023-09-19T03:35:21;1807.43;;;999.90;;
7239;SDS011;3661;53.288;10.458;2023-09-19T03:37:54;1787.72;;;999.90;;
7239;SDS011;3661;53.288;10.458;2023-09-19T03:40:34;1818.63;;;999.90;;
7239;SDS011;3661;53.288;10.458;2023-09-19T03:43:08;1784.85;;;999.90;;
7239;SDS011;3661;53.288;10.458;2023-09-19T03:45:41;1784.47;;;999.90;;
7239;SDS011;3661;53.288;10.458;2023-09-19T03:48:13;1809.28;;;999.90;;
7239;SDS011;3661;53.288;10.458;2023-09-19T03:50:47;1793.45;;;999.90;;
7239;SDS011;3661;53.288;10.458;2023-09-19T03:53:20;1791.22;;;999.90;;
7239;SDS011;3661;53.288;10.458;2023-09-19T03:55:52;1800.40;;;999.90;;
7239;SDS011;3661;53.288;10.458;2023-09-19T03:58:27;1764.18;;;999.90;;
7239;SDS011;3661;53.288;10.458;2023-09-19T04:00:59;1768.70;;;999.90;;
7239;SDS011;3661;53.288;10.458;2023-09-19T04:03:32;1777.45;;;999.90;;
7239;SDS011;3661;53.288;10.458;2023-09-19T04:06:17;1793.47;;;999.90;;
7239;SDS011;3661;53.288;10.458;2023-09-19T04:08:50;1795.53;;;999.90;;
7239;SDS011;3661;53.288;10.458;2023-09-19T04:11:22;1787.72;;;999.90;;
7239;SDS011;3661;53.288;10.458;2023-09-19T04:13:55;1790.80;;;999.90;;
7239;SDS011;3661;53.288;10.458;2023-09-19T04:16:28;1787.30;;;999.90;;
7239;SDS011;3661;53.288;10.458;2023-09-19T04:19:00;1782.47;;;999.90;;
7239;SDS011;3661;53.288;10.458;2023-09-19T04:21:36;1784.50;;;999.90;;
7239;SDS011;3661;53.288;10.458;2023-09-19T04:24:09;1771.05;;;999.90;;
7239;SDS011;3661;53.288;10.458;2023-09-19T04:26:43;1791.37;;;999.90;;
7239;SDS011;3661;53.288;10.458;2023-09-19T04:29:16;1767.82;;;999.90;;
7239;SDS011;3661;53.288;10.458;2023-09-19T04:31:49;1788.23;;;999.90;;
7239;SDS011;3661;53.288;10.458;2023-09-19T04:34:22;1768.30;;;999.90;;
7239;SDS011;3661;53.288;10.458;2023-09-19T04:37:02;1765.83;;;999.90;;
7239;SDS011;3661;53.288;10.458;2023-09-19T04:39:37;1763.20;;;999.90;;
7239;SDS011;3661;53.288;10.458;2023-09-19T04:42:10;1768.82;;;999.90;;
7239;SDS011;3661;53.288;10.458;2023-09-19T04:44:44;1761.10;;;999.90;;
7239;SDS011;3661;53.288;10.458;2023-09-19T04:47:19;1769.75;;;999.90;;
7239;SDS011;3661;53.288;10.458;2023-09-19T04:49:52;1764.22;;;999.90;;
7239;SDS011;3661;53.288;10.458;2023-09-19T04:52:26;1770.85;;;999.90;;
7239;SDS011;3661;53.288;10.458;2023-09-19T04:55:01;1762.43;;;999.90;;
7239;SDS011;3661;53.288;10.458;2023-09-19T04:57:34;1753.63;;;999.90;;
7239;SDS011;3661;53.288;10.458;2023-09-19T05:00:09;1762.65;;;999.90;;
7239;SDS011;3661;53.288;10.458;2023-09-19T05:02:44;1752.50;;;999.90;;
7239;SDS011;3661;53.288;10.458;2023-09-19T05:05:17;1755.22;;;999.90;;
7239;SDS011;3661;53.288;10.458;2023-09-19T05:07:51;1745.10;;;999.90;;
7239;SDS011;3661;53.288;10.458;2023-09-19T05:10:24;1746.90;;;999.90;;
7239;SDS011;3661;53.288;10.458;2023-09-19T05:12:58;1749.30;;;999.90;;
7239;SDS011;3661;53.288;10.458;2023-09-19T05:15:31;1748.40;;;999.90;;
7239;SDS011;3661;53.288;10.458;2023-09-19T05:18:03;1741.43;;;999.90;;
7239;SDS011;3661;53.288;10.458;2023-09-19T05:20:36;1741.50;;;999.90;;
7239;SDS011;3661;53.288;10.458;2023-09-19T05:23:12;1710.07;;;999.90;;
7239;SDS011;3661;53.288;10.458;2023-09-19T05:25:44;1720.57;;;999.90;;
7239;SDS011;3661;53.288;10.458;2023-09-19T05:28:17;1731.78;;;999.90;;
7239;SDS011;3661;53.288;10.458;2023-09-19T05:30:49;1727.97;;;999.90;;
7239;SDS011;3661;53.288;10.458;2023-09-19T05:33:21;1723.97;;;999.90;;
7239;SDS011;3661;53.288;10.458;2023-09-19T05:35:54;1723.05;;;999.90;;
7239;SDS011;3661;53.288;10.458;2023-09-19T05:38:28;1728.50;;;999.90;;
7239;SDS011;3661;53.288;10.458;2023-09-19T05:41:01;1729.63;;;999.90;;
7239;SDS011;3661;53.288;10.458;2023-09-19T05:43:38;1723.97;;;999.90;;
7239;SDS011;3661;53.288;10.458;2023-09-19T05:46:29;1718.20;;;999.90;;
7239;SDS011;3661;53.288;10.458;2023-09-19T05:49:01;1721.88;;;999.90;;
7239;SDS011;3661;53.288;10.458;2023-09-19T05:51:36;1719.20;;;999.90;;
7239;SDS011;3661;53.288;10.458;2023-09-19T05:54:10;1705.75;;;999.90;;
7239;SDS011;3661;53.288;10.458;2023-09-19T05:56:42;1731.22;;;999.90;;
7239;SDS011;3661;53.288;10.458;2023-09-19T05:59:17;1721.60;;;999.90;;
7239;SDS011;3661;53.288;10.458;2023-09-19T06:01:49;1710.15;;;999.90;;
7239;SDS011;3661;53.288;10.458;2023-09-19T06:04:22;1717.50;;;999.90;;
7239;SDS011;3661;53.288;10.458;2023-09-19T06:06:55;1722.07;;;999.90;;
7239;SDS011;3661;53.288;10.458;2023-09-19T06:09:31;1727.55;;;999.90;;
7239;SDS011;3661;53.288;10.458;2023-09-19T06:12:04;1697.40;;;999.90;;
7239;SDS011;3661;53.288;10.458;2023-09-19T06:14:36;1706.68;;;999.90;;
7239;SDS011;3661;53.288;10.458;2023-09-19T06:17:10;1698.82;;;999.90;;
7239;SDS011;3661;53.288;10.458;2023-09-19T06:19:47;1701.82;;;999.90;;
7239;SDS011;3661;53.288;10.458;2023-09-19T06:22:22;1710.70;;;999.90;;
7239;SDS011;3661;53.288;10.458;2023-09-19T06:24:59;1683.50;;;999.90;;
7239;SDS011;3661;53.288;10.458;2023-09-19T06:27:32;1688.38;;;999.90;;
7239;SDS011;3661;53.288;10.458;2023-09-19T06:30:09;1694.40;;;999.90;;
7239;SDS011;3661;53.288;10.458;2023-09-19T06:32:46;1718.68;;;999.90;;
7239;SDS011;3661;53.288;10.458;2023-09-19T06:35:20;1712.15;;;999.90;;
7239;SDS011;3661;53.288;10.458;2023-09-19T06:37:55;1692.93;;;999.90;;
7239;SDS011;3661;53.288;10.458;2023-09-19T06:40:45;1708.32;;;999.90;;
7239;SDS011;3661;53.288;10.458;2023-09-19T06:43:18;1722.43;;;999.90;;
7239;SDS011;3661;53.288;10.458;2023-09-19T06:45:57;1702.95;;;999.90;;
7239;SDS011;3661;53.288;10.458;2023-09-19T06:48:30;1702.40;;;999.90;;
7239;SDS011;3661;53.288;10.458;2023-09-19T06:51:04;1703.00;;;999.90;;
7239;SDS011;3661;53.288;10.458;2023-09-19T06:53:40;1716.28;;;999.90;;
7239;SDS011;3661;53.288;10.458;2023-09-19T06:56:17;1730.50;;;999.90;;
7239;SDS011;3661;53.288;10.458;2023-09-19T06:58:55;1726.00;;;999.90;;
7239;SDS011;3661;53.288;10.458;2023-09-19T07:01:28;1727.82;;;999.90;;
7239;SDS011;3661;53.288;10.458;2023-09-19T07:04:02;1721.10;;;999.90;;
7239;SDS011;3661;53.288;10.458;2023-09-19T07:06:37;1753.63;;;999.90;;
7239;SDS011;3661;53.288;10.458;2023-09-19T07:09:10;1740.97;;;999.90;;
7239;SDS011;3661;53.288;10.458;2023-09-19T07:11:45;1747.13;;;999.90;;
7239;SDS011;3661;53.288;10.458;2023-09-19T07:14:23;1749.07;;;999.90;;
7239;SDS011;3661;53.288;10.458;2023-09-19T07:16:57;1754.30;;;999.90;;
7239;SDS011;3661;53.288;10.458;2023-09-19T07:19:30;1747.28;;;999.90;;
7239;SDS011;3661;53.288;10.458;2023-09-19T07:22:04;1748.55;;;999.90;;
7239;SDS011;3661;53.288;10.458;2023-09-19T07:24:43;1745.07;;;999.90;;
7239;SDS011;3661;53.288;10.458;2023-09-19T07:27:21;1761.18;;;999.90;;
7239;SDS011;3661;53.288;10.458;2023-09-19T07:30:05;1745.50;;;999.90;;
7239;SDS011;3661;53.288;10.458;2023-09-19T07:32:57;1747.85;;;999.90;;
7239;SDS011;3661;53.288;10.458;2023-09-19T07:35:30;1758.77;;;999.90;;
7239;SDS011;3661;53.288;10.458;2023-09-19T07:38:04;1775.20;;;999.90;;
7239;SDS011;3661;53.288;10.458;2023-09-19T07:40:41;1775.73;;;999.90;;
7239;SDS011;3661;53.288;10.458;2023-09-19T07:43:16;1794.47;;;999.90;;
7239;SDS011;3661;53.288;10.458;2023-09-19T07:45:50;1794.25;;;999.90;;
7239;SDS011;3661;53.288;10.458;2023-09-19T07:48:24;1787.28;;;999.90;;
7239;SDS011;3661;53.288;10.458;2023-09-19T07:51:02;1780.53;;;999.90;;
7239;SDS011;3661;53.288;10.458;2023-09-19T07:53:36;1771.43;;;999.90;;
7239;SDS011;3661;53.288;10.458;2023-09-19T07:56:09;1787.20;;;999.90;;
7239;SDS011;3661;53.288;10.458;2023-09-19T07:58:48;1805.53;;;999.90;;
7239;SDS011;3661;53.288;10.458;2023-09-19T08:01:22;1812.53;;;999.90;;
7239;SDS011;3661;53.288;10.458;2023-09-19T08:03:58;1811.35;;;999.90;;
7239;SDS011;3661;53.288;10.458;2023-09-19T08:06:32;1828.68;;;999.90;;
7239;SDS011;3661;53.288;10.458;2023-09-19T08:09:04;1830.93;;;999.90;;
7239;SDS011;3661;53.288;10.458;2023-09-19T08:11:41;1815.07;;;999.90;;
7239;SDS011;3661;53.288;10.458;2023-09-19T08:14:26;1852.07;;;999.90;;
7239;SDS011;3661;53.288;10.458;2023-09-19T08:17:01;1834.15;;;999.90;;
7239;SDS011;3661;53.288;10.458;2023-09-19T08:19:38;1822.10;;;999.90;;
7239;SDS011;3661;53.288;10.458;2023-09-19T08:22:25;1837.07;;;999.90;;
7239;SDS011;3661;53.288;10.458;2023-09-19T08:24:57;1846.77;;;999.90;;
7239;SDS011;3661;53.288;10.458;2023-09-19T08:27:37;1855.53;;;999.90;;
7239;SDS011;3661;53.288;10.458;2023-09-19T08:30:21;1861.05;;;999.90;;
7239;SDS011;3661;53.288;10.458;2023-09-19T08:32:57;1848.07;;;999.90;;
7239;SDS011;3661;53.288;10.458;2023-09-19T08:35:35;1858.10;;;999.90;;
7239;SDS011;3661;53.288;10.458;2023-09-19T08:38:08;1865.82;;;999.90;;
7239;SDS011;3661;53.288;10.458;2023-09-19T08:40:42;1856.97;;;999.90;;
7239;SDS011;3661;53.288;10.458;2023-09-19T08:43:21;1867.35;;;999.90;;
7239;SDS011;3661;53.288;10.458;2023-09-19T08:45:57;1872.40;;;999.90;;
7239;SDS011;3661;53.288;10.458;2023-09-19T08:48:39;1870.50;;;999.90;;
7239;SDS011;3661;53.288;10.458;2023-09-19T08:51:38;1874.13;;;999.90;;
7239;SDS011;3661;53.288;10.458;2023-09-19T08:54:47;1867.28;;;999.90;;
7239;SDS011;3661;53.288;10.458;2023-09-19T08:57:36;1883.50;;;999.90;;
7239;SDS011;3661;53.288;10.458;2023-09-19T09:00:14;1887.32;;;999.90;;
7239;SDS011;3661;53.288;10.458;2023-09-19T09:03:09;1879.65;;;999.90;;
7239;SDS011;3661;53.288;10.458;2023-09-19T09:06:16;1885.70;;;999.90;;
7239;SDS011;3661;53.288;10.458;2023-09-19T09:09:07;1881.43;;;999.90;;
7239;SDS011;3661;53.288;10.458;2023-09-19T09:12:04;1898.88;;;999.90;;
7239;SDS011;3661;53.288;10.458;2023-09-19T09:15:00;1901.40;;;999.90;;
7239;SDS011;3661;53.288;10.458;2023-09-19T09:18:02;1907.22;;;999.90;;
7239;SDS011;3661;53.288;10.458;2023-09-19T09:20:54;1912.32;;;999.90;;
7239;SDS011;3661;53.288;10.458;2023-09-19T09:23:48;1916.07;;;999.90;;
7239;SDS011;3661;53.288;10.458;2023-09-19T09:29:16;1933.97;;;999.90;;
7239;SDS011;3661;53.288;10.458;2023-09-19T09:32:19;1926.47;;;999.90;;
7239;SDS011;3661;53.288;10.458;2023-09-19T09:35:29;1919.32;;;999.90;;
7239;SDS011;3661;53.288;10.458;2023-09-19T09:38:05;1910.32;;;999.90;;
7239;SDS011;3661;53.288;10.458;2023-09-19T09:40:50;1932.10;;;999.90;;
7239;SDS011;3661;53.288;10.458;2023-09-19T09:43:33;1923.85;;;999.90;;
7239;SDS011;3661;53.288;10.458;2023-09-19T09:46:30;1945.85;;;999.90;;
7239;SDS011;3661;53.288;10.458;2023-09-19T09:53:00;1941.97;;;999.90;;
7239;SDS011;3661;53.288;10.458;2023-09-19T09:56:15;1962.70;;;999.90;;
7239;SDS011;3661;53.288;10.458;2023-09-19T09:58:52;1945.07;;;999.90;;
7239;SDS011;3661;53.288;10.458;2023-09-19T10:01:54;1959.53;;;999.90;;
7239;SDS011;3661;53.288;10.458;2023-09-19T10:08:40;1973.25;;;999.90;;
7239;SDS011;3661;53.288;10.458;2023-09-19T10:12:07;1956.10;;;999.90;;
7239;SDS011;3661;53.288;10.458;2023-09-19T10:18:49;1993.80;;;999.90;;
7239;SDS011;3661;53.288;10.458;2023-09-19T10:21:59;1975.47;;;999.90;;
7239;SDS011;3661;53.288;10.458;2023-09-19T10:28:27;1993.05;;;999.90;;
7239;SDS011;3661;53.288;10.458;2023-09-19T10:38:14;1999.90;;;999.90;;
7239;SDS011;3661;53.288;10.458;2023-09-19T10:51:39;1997.63;;;999.90;;
7239;SDS011;3661;53.288;10.458;2023-09-19T11:02:24;1999.90;;;999.90;;
7239;SDS011;3661;53.288;10.458;2023-09-19T11:05:59;1989.90;;;999.90;;
7239;SDS011;3661;53.288;10.458;2023-09-19T11:13:07;1999.90;;;999.90;;
7239;SDS011;3661;53.288;10.458;2023-09-19T11:23:41;1997.53;;;999.90;;
7239;SDS011;3661;53.288;10.458;2023-09-19T11:27:23;1999.90;;;999.90;;
7239;SDS011;3661;53.288;10.458;2023-09-19T11:33:21;1999.90;;;999.90;;
7239;SDS011;3661;53.288;10.458;2023-09-19T11:36:03;1993.50;;;999.90;;
7239;SDS011;3661;53.288;10.458;2023-09-19T11:49:09;1989.72;;;999.90;;
7239;SDS011;3661;53.288;10.458;2023-09-19T11:52:18;1999.90;;;999.90;;
7239;SDS011;3661;53.288;10.458;2023-09-19T11:55:31;1999.90;;;999.90;;
7239;SDS011;3661;53.288;10.458;2023-09-19T11:58:19;1999.90;;;999.90;;
7239;SDS011;3661;53.288;10.458;2023-09-19T12:00:55;1998.35;;;999.90;;
7239;SDS011;3661;53.288;10.458;2023-09-19T12:03:50;1999.90;;;999.90;;
7239;SDS011;3661;53.288;10.458;2023-09-19T12:06:39;1999.90;;;999.90;;
7239;SDS011;3661;53.288;10.458;2023-09-19T12:09:14;1999.90;;;999.90;;
7239;SDS011;3661;53.288;10.458;2023-09-19T12:12:29;1999.90;;;999.90;;
7239;SDS011;3661;53.288;10.458;2023-09-19T12:25:59;1999.90;;;999.90;;
7239;SDS011;3661;53.288;10.458;2023-09-19T12:28:51;1999.90;;;999.90;;
7239;SDS011;3661;53.288;10.458;2023-09-19T12:35:39;1999.90;;;999.90;;
7239;SDS011;3661;53.288;10.458;2023-09-19T13:05:12;1999.90;;;999.90;;
7239;SDS011;3661;53.288;10.458;2023-09-19T13:07:45;1999.90;;;999.90;;
7239;SDS011;3661;53.288;10.458;2023-09-19T13:10:19;1999.90;;;999.90;;
7239;SDS011;3661;53.288;10.458;2023-09-19T13:12:54;1999.90;;;999.90;;
7239;SDS011;3661;53.288;10.458;2023-09-19T13:15:26;1999.90;;;999.90;;
7239;SDS011;3661;53.288;10.458;2023-09-19T13:18:00;1999.90;;;999.90;;
7239;SDS011;3661;53.288;10.458;2023-09-19T13:23:42;1999.90;;;999.90;;
7239;SDS011;3661;53.288;10.458;2023-09-19T13:26:14;1999.90;;;999.90;;
7239;SDS011;3661;53.288;10.458;2023-09-19T13:28:47;1999.90;;;999.90;;
7239;SDS011;3661;53.288;10.458;2023-09-19T13:31:19;1999.90;;;999.90;;
7239;SDS011;3661;53.288;10.458;2023-09-19T13:33:54;1999.90;;;999.90;;
7239;SDS011;3661;53.288;10.458;2023-09-19T13:36:27;1999.90;;;999.90;;
7239;SDS011;3661;53.288;10.458;2023-09-19T13:39:00;1999.90;;;999.90;;
7239;SDS011;3661;53.288;10.458;2023-09-19T13:41:32;1999.90;;;999.90;;
7239;SDS011;3661;53.288;10.458;2023-09-19T13:44:06;1999.90;;;999.90;;
7239;SDS011;3661;53.288;10.458;2023-09-19T13:46:42;1999.90;;;999.90;;
7239;SDS011;3661;53.288;10.458;2023-09-19T13:49:16;1999.90;;;999.90;;
7239;SDS011;3661;53.288;10.458;2023-09-19T13:51:50;1999.90;;;999.90;;
7239;SDS011;3661;53.288;10.458;2023-09-19T13:54:23;1999.90;;;999.90;;
7239;SDS011;3661;53.288;10.458;2023-09-19T13:56:56;1999.90;;;999.90;;
7239;SDS011;3661;53.288;10.458;2023-09-19T13:59:28;1999.90;;;999.90;;
7239;SDS011;3661;53.288;10.458;2023-09-19T14:02:01;1999.90;;;999.90;;
7239;SDS011;3661;53.288;10.458;2023-09-19T14:04:35;1999.90;;;999.90;;
7239;SDS011;3661;53.288;10.458;2023-09-19T14:07:10;1999.90;;;999.90;;
7239;SDS011;3661;53.288;10.458;2023-09-19T14:09:45;1999.90;;;999.90;;
7239;SDS011;3661;53.288;10.458;2023-09-19T14:12:17;1999.90;;;999.90;;
7239;SDS011;3661;53.288;10.458;2023-09-19T14:14:49;1999.90;;;999.90;;
7239;SDS011;3661;53.288;10.458;2023-09-19T14:17:21;1999.90;;;999.90;;
7239;SDS011;3661;53.288;10.458;2023-09-19T14:19:55;1999.90;;;999.90;;
7239;SDS011;3661;53.288;10.458;2023-09-19T14:22:29;1999.90;;;999.90;;
7239;SDS011;3661;53.288;10.458;2023-09-19T14:25:04;1999.90;;;999.90;;
7239;SDS011;3661;53.288;10.458;2023-09-19T14:27:36;1999.90;;;999.90;;
7239;SDS011;3661;53.288;10.458;2023-09-19T14:30:09;1999.90;;;999.90;;
7239;SDS011;3661;53.288;10.458;2023-09-19T14:32:42;1999.90;;;999.90;;
7239;SDS011;3661;53.288;10.458;2023-09-19T14:35:24;1999.90;;;999.90;;
7239;SDS011;3661;53.288;10.458;2023-09-19T14:38:00;1999.90;;;999.90;;
7239;SDS011;3661;53.288;10.458;2023-09-19T14:40:33;1999.90;;;999.90;;
7239;SDS011;3661;53.288;10.458;2023-09-19T14:43:06;1999.90;;;999.90;;
7239;SDS011;3661;53.288;10.458;2023-09-19T14:45:38;1999.90;;;999.90;;
7239;SDS011;3661;53.288;10.458;2023-09-19T14:48:11;1999.90;;;999.90;;
7239;SDS011;3661;53.288;10.458;2023-09-19T14:50:43;1999.90;;;999.90;;
7239;SDS011;3661;53.288;10.458;2023-09-19T14:53:17;1999.90;;;999.90;;
7239;SDS011;3661;53.288;10.458;2023-09-19T14:55:49;1999.90;;;999.90;;
7239;SDS011;3661;53.288;10.458;2023-09-19T14:58:22;1999.90;;;999.90;;
7239;SDS011;3661;53.288;10.458;2023-09-19T15:01:02;1999.90;;;999.90;;
7239;SDS011;3661;53.288;10.458;2023-09-19T15:03:35;1999.90;;;999.90;;
7239;SDS011;3661;53.288;10.458;2023-09-19T15:06:10;1999.90;;;999.90;;
7239;SDS011;3661;53.288;10.458;2023-09-19T15:08:46;1999.90;;;999.90;;
7239;SDS011;3661;53.288;10.458;2023-09-19T15:11:20;1999.90;;;999.90;;
7239;SDS011;3661;53.288;10.458;2023-09-19T15:13:53;1999.90;;;999.90;;
7239;SDS011;3661;53.288;10.458;2023-09-19T15:16:27;1999.90;;;999.90;;
7239;SDS011;3661;53.288;10.458;2023-09-19T15:18:59;1999.90;;;999.90;;
7239;SDS011;3661;53.288;10.458;2023-09-19T15:21:31;1999.90;;;999.90;;
7239;SDS011;3661;53.288;10.458;2023-09-19T15:24:05;1999.90;;;999.90;;
7239;SDS011;3661;53.288;10.458;2023-09-19T15:26:40;1999.90;;;999.90;;
7239;SDS011;3661;53.288;10.458;2023-09-19T15:29:14;1999.90;;;999.90;;
7239;SDS011;3661;53.288;10.458;2023-09-19T15:31:46;1999.90;;;999.90;;
7239;SDS011;3661;53.288;10.458;2023-09-19T15:34:18;1999.90;;;999.90;;
7239;SDS011;3661;53.288;10.458;2023-09-19T15:36:50;1999.90;;;999.90;;
7239;SDS011;3661;53.288;10.458;2023-09-19T15:39:25;1998.53;;;999.90;;
7239;SDS011;3661;53.288;10.458;2023-09-19T15:42:03;1999.90;;;999.90;;
7239;SDS011;3661;53.288;10.458;2023-09-19T15:44:36;1999.90;;;999.90;;
7239;SDS011;3661;53.288;10.458;2023-09-19T15:47:08;1999.90;;;999.90;;
7239;SDS011;3661;53.288;10.458;2023-09-19T15:49:41;1999.90;;;999.90;;
7239;SDS011;3661;53.288;10.458;2023-09-19T15:52:13;1999.90;;;999.90;;
7239;SDS011;3661;53.288;10.458;2023-09-19T15:54:49;1999.90;;;999.90;;
7239;SDS011;3661;53.288;10.458;2023-09-19T15:57:22;1999.90;;;999.90;;
7239;SDS011;3661;53.288;10.458;2023-09-19T15:59:55;1999.90;;;999.90;;
7239;SDS011;3661;53.288;10.458;2023-09-19T16:02:28;1999.90;;;999.90;;
7239;SDS011;3661;53.288;10.458;2023-09-19T16:05:00;1998.75;;;999.90;;
7239;SDS011;3661;53.288;10.458;2023-09-19T16:07:35;1999.90;;;999.90;;
7239;SDS011;3661;53.288;10.458;2023-09-19T16:10:10;1999.90;;;999.90;;
7239;SDS011;3661;53.288;10.458;2023-09-19T16:12:45;1999.90;;;999.90;;
7239;SDS011;3661;53.288;10.458;2023-09-19T16:15:18;1993.10;;;999.90;;
7239;SDS011;3661;53.288;10.458;2023-09-19T16:17:51;1999.33;;;999.90;;
7239;SDS011;3661;53.288;10.458;2023-09-19T16:20:24;1997.80;;;999.90;;
7239;SDS011;3661;53.288;10.458;2023-09-19T16:22:58;1999.90;;;999.90;;
7239;SDS011;3661;53.288;10.458;2023-09-19T16:25:32;1991.78;;;999.90;;
7239;SDS011;3661;53.288;10.458;2023-09-19T16:28:06;1995.20;;;999.90;;
7239;SDS011;3661;53.288;10.458;2023-09-19T16:30:39;1982.28;;;999.90;;
7239;SDS011;3661;53.288;10.458;2023-09-19T16:33:11;1986.90;;;999.90;;
7239;SDS011;3661;53.288;10.458;2023-09-19T16:35:43;1997.78;;;999.90;;
7239;SDS011;3661;53.288;10.458;2023-09-19T16:38:15;1991.85;;;999.90;;
7239;SDS011;3661;53.288;10.458;2023-09-19T16:40:53;1999.90;;;999.90;;
7239;SDS011;3661;53.288;10.458;2023-09-19T16:43:26;1976.07;;;999.90;;
7239;SDS011;3661;53.288;10.458;2023-09-19T16:46:00;1973.53;;;999.90;;
7239;SDS011;3661;53.288;10.458;2023-09-19T16:48:34;1967.90;;;999.90;;
7239;SDS011;3661;53.288;10.458;2023-09-19T16:51:07;1976.97;;;999.90;;
7239;SDS011;3661;53.288;10.458;2023-09-19T16:53:41;1977.53;;;999.90;;
7239;SDS011;3661;53.288;10.458;2023-09-19T16:56:17;1974.80;;;999.90;;